Time;durP1;ratioP1;P1;durP2;ratioP2;P2;SDS_P1;SDS_P2;PMS_P1;PMS_P2;Temp;Humidity;BMP_temperature;BMP_pressure;BME280_temperature;BME280_humidity;BME280_pressure;Samples;Min_cycle;Max_cycle;Signal;HPM_P1;HPM_P2
2022/07/01 00:01:44;;;;;;;335.88;170.18;;;;;;;16.04;100.00;99364.22;5052186;28;20205;-80
2022/07/01 00:04:12;;;;;;;337.50;184.85;;;;;;;16.04;100.00;99375.94;5052061;28;20542;-79
2022/07/01 00:06:38;;;;;;;335.10;177.30;;;;;;;16.07;100.00;99379.41;5051530;28;20186;-79
2022/07/01 00:09:06;;;;;;;338.58;184.73;;;;;;;16.15;100.00;99388.63;5051890;28;20292;-79
2022/07/01 00:11:33;;;;;;;336.40;175.07;;;;;;;15.97;100.00;99395.63;5051931;28;20205;-79
2022/07/01 00:14:00;;;;;;;334.80;179.77;;;;;;;15.89;100.00;99398.09;5051485;28;20300;-78
2022/07/01 00:16:27;;;;;;;337.95;176.23;;;;;;;15.82;100.00;99409.44;5052055;28;20276;-78
2022/07/01 00:18:53;;;;;;;338.42;176.02;;;;;;;16.16;100.00;99419.34;5052274;28;20202;-79
2022/07/01 00:21:20;;;;;;;332.10;169.13;;;;;;;16.10;100.00;99425.28;5051209;28;20209;-79
2022/07/01 00:23:46;;;;;;;330.98;171.55;;;;;;;16.15;100.00;99414.94;5051688;28;20640;-80
2022/07/01 00:26:14;;;;;;;331.98;170.88;;;;;;;16.15;100.00;99412.22;5051662;28;20273;-80
2022/07/01 00:28:41;;;;;;;329.20;168.23;;;;;;;16.35;100.00;99415.94;5050399;28;20293;-80
2022/07/01 00:31:08;;;;;;;331.77;172.82;;;;;;;16.42;100.00;99418.03;5052097;28;20218;-80
2022/07/01 00:33:34;;;;;;;369.20;234.25;;;;;;;16.16;100.00;99414.78;5051033;28;20596;-80
2022/07/01 00:36:01;;;;;;;370.85;228.43;;;;;;;16.15;100.00;99406.78;5050719;28;20293;-78
2022/07/01 00:38:28;;;;;;;376.55;249.88;;;;;;;16.23;100.00;99405.13;5050997;28;20684;-79
2022/07/01 00:40:55;;;;;;;377.40;248.85;;;;;;;16.12;100.00;99416.03;5050995;28;20278;-80
2022/07/01 00:43:24;;;;;;;379.02;248.77;;;;;;;16.27;100.00;99403.00;5050954;28;20592;-79
2022/07/01 00:45:51;;;;;;;381.67;252.32;;;;;;;16.15;100.00;99428.50;5052526;28;20604;-79
2022/07/01 00:48:20;;;;;;;371.42;228.93;;;;;;;16.19;100.00;99435.38;5054522;28;20551;-80
2022/07/01 00:50:48;;;;;;;369.00;229.07;;;;;;;16.45;100.00;99420.47;5054372;28;20614;-80
2022/07/01 00:53:15;;;;;;;378.42;249.57;;;;;;;16.66;100.00;99416.88;5053916;28;20192;-79
2022/07/01 00:55:42;;;;;;;377.92;252.10;;;;;;;16.64;100.00;99427.03;5053859;28;20288;-81
2022/07/01 00:58:09;;;;;;;385.58;255.32;;;;;;;16.72;100.00;99432.69;5054062;28;20209;-79
2022/07/01 01:00:39;;;;;;;377.75;250.27;;;;;;;16.88;100.00;99440.41;5053641;28;20292;-80
2022/07/01 01:03:06;;;;;;;380.58;261.30;;;;;;;16.86;100.00;99439.66;5054073;28;20215;-80
2022/07/01 01:05:33;;;;;;;382.25;259.90;;;;;;;16.80;100.00;99437.47;5054255;28;20272;-78
2022/07/01 01:07:59;;;;;;;381.65;261.60;;;;;;;16.65;100.00;99436.94;5054218;28;20230;-79
2022/07/01 01:10:27;;;;;;;385.65;269.17;;;;;;;16.67;100.00;99433.09;5053648;28;20187;-81
2022/07/01 01:12:55;;;;;;;337.90;192.88;;;;;;;16.58;100.00;99433.03;5053859;28;20330;-78
2022/07/01 01:15:22;;;;;;;377.70;261.80;;;;;;;16.74;100.00;99441.56;5053975;28;20416;-79
2022/07/01 01:17:50;;;;;;;384.00;262.58;;;;;;;16.57;100.00;99444.88;5053966;28;20222;-80
2022/07/01 01:20:19;;;;;;;375.20;244.85;;;;;;;16.65;100.00;99464.13;5053854;28;20284;-79
2022/07/01 01:22:49;;;;;;;338.02;197.38;;;;;;;16.54;100.00;99461.44;5053626;28;20197;-80
2022/07/01 01:25:15;;;;;;;335.50;177.70;;;;;;;16.56;100.00;99459.47;5053749;28;20182;-80
2022/07/01 01:27:43;;;;;;;337.58;191.18;;;;;;;16.49;100.00;99456.41;5053673;28;20205;-80
2022/07/01 01:30:13;;;;;;;336.40;181.65;;;;;;;16.34;100.00;99447.69;5053458;28;20273;-80
2022/07/01 01:32:40;;;;;;;337.15;189.23;;;;;;;16.30;100.00;99450.78;5053326;28;20202;-78
2022/07/01 01:35:08;;;;;;;328.70;175.18;;;;;;;16.40;100.00;99455.31;5053535;28;20200;-80
2022/07/01 01:37:35;;;;;;;331.40;173.38;;;;;;;16.43;100.00;99462.34;5053891;28;20292;-81
2022/07/01 01:40:04;;;;;;;329.40;174.05;;;;;;;16.42;100.00;99463.34;5054392;28;20205;-80
2022/07/01 01:42:31;;;;;;;334.65;175.77;;;;;;;16.35;100.00;99470.28;5054270;28;20695;-80
2022/07/01 01:44:58;;;;;;;379.92;237.80;;;;;;;16.35;100.00;99473.88;5053591;28;20232;-80
2022/07/01 01:47:25;;;;;;;378.70;232.38;;;;;;;16.21;100.00;99464.19;5053323;28;20271;-80
2022/07/01 01:49:51;;;;;;;387.50;252.32;;;;;;;16.03;100.00;99461.13;5053064;28;20268;-80
2022/07/01 01:52:18;;;;;;;380.13;224.65;;;;;;;16.12;100.00;99459.47;5053244;28;20292;-79
2022/07/01 01:54:45;;;;;;;396.17;274.48;;;;;;;16.18;100.00;99472.56;5052870;28;20186;-80
2022/07/01 01:57:13;;;;;;;406.05;298.67;;;;;;;16.13;100.00;99482.09;5052655;28;20651;-80
2022/07/01 01:59:39;;;;;;;388.23;263.77;;;;;;;16.00;100.00;99474.09;5053117;28;20639;-80
2022/07/01 02:02:06;;;;;;;386.80;263.95;;;;;;;16.15;100.00;99450.25;5053176;28;20561;-80
2022/07/01 02:04:33;;;;;;;400.98;290.90;;;;;;;16.19;100.00;99435.38;5053232;28;20224;-79
2022/07/01 02:07:00;;;;;;;412.50;304.13;;;;;;;16.10;100.00;99425.28;5053216;28;20205;-81
2022/07/01 02:09:28;;;;;;;398.42;286.08;;;;;;;16.04;100.00;99430.25;5052927;28;20186;-80
2022/07/01 02:11:54;;;;;;;391.60;264.35;;;;;;;15.95;100.00;99428.31;5052442;28;20212;-81
2022/07/01 02:14:22;;;;;;;393.35;275.60;;;;;;;15.97;100.00;99431.75;5052694;28;20565;-78
2022/07/01 02:16:49;;;;;;;381.95;252.63;;;;;;;15.80;100.00;99429.56;5052877;28;20240;-79
2022/07/01 02:19:16;;;;;;;414.15;326.13;;;;;;;15.96;100.00;99431.88;5052277;28;20313;-79
2022/07/01 02:21:43;;;;;;;395.90;285.73;;;;;;;16.10;100.00;99430.72;5052496;28;20196;-79
2022/07/01 02:24:09;;;;;;;409.33;297.55;;;;;;;15.83;100.00;99442.91;5052712;28;20642;-79
2022/07/01 02:26:36;;;;;;;395.02;274.42;;;;;;;15.77;100.00;99462.41;5052326;28;20297;-80
2022/07/01 02:29:04;;;;;;;393.40;269.85;;;;;;;15.76;100.00;99485.09;5051389;28;20204;-80
2022/07/01 02:31:32;;;;;;;394.10;277.55;;;;;;;15.86;100.00;99491.53;5052609;28;20185;-79
2022/07/01 02:33:58;;;;;;;384.63;245.10;;;;;;;15.94;100.00;99474.59;5052155;28;20213;-80
2022/07/01 02:36:25;;;;;;;392.52;276.25;;;;;;;15.88;100.00;99480.53;5052437;28;20684;-79
2022/07/01 02:38:52;;;;;;;395.90;280.08;;;;;;;16.08;100.00;99470.72;5052154;28;20228;-81
2022/07/01 02:41:18;;;;;;;385.73;263.10;;;;;;;16.28;100.00;99456.38;5052358;28;20550;-78
2022/07/01 02:43:45;;;;;;;383.92;259.55;;;;;;;16.27;100.00;99462.78;5051941;28;20273;-80
2022/07/01 02:46:12;;;;;;;389.10;278.95;;;;;;;16.13;100.00;99463.09;5051778;28;20241;-79
2022/07/01 02:48:40;;;;;;;387.15;263.98;;;;;;;16.09;100.00;99464.31;5051883;28;20269;-79
2022/07/01 02:51:06;;;;;;;394.85;287.70;;;;;;;15.98;100.00;99470.63;5051856;28;20200;-79
2022/07/01 02:53:33;;;;;;;389.00;265.30;;;;;;;15.91;100.00;99464.00;5051781;28;20300;-80
2022/07/01 02:56:00;;;;;;;388.40;266.83;;;;;;;15.96;100.00;99454.47;5051780;28;20228;-79
2022/07/01 02:58:26;;;;;;;388.48;270.38;;;;;;;15.89;100.00;99458.69;5051641;28;20232;-79
2022/07/01 03:00:53;;;;;;;377.77;239.05;;;;;;;15.74;100.00;99479.81;5051997;28;20204;-81
2022/07/01 03:03:20;;;;;;;383.02;250.82;;;;;;;15.91;100.00;99481.13;5051807;28;20279;-80
2022/07/01 03:05:49;;;;;;;382.30;254.32;;;;;;;15.82;100.00;99492.75;5052006;28;20182;-80
2022/07/01 03:08:15;;;;;;;382.90;257.25;;;;;;;15.75;100.00;99492.38;5051182;28;20196;-78
2022/07/01 03:10:42;;;;;;;383.13;255.75;;;;;;;15.73;100.00;99483.50;5051727;28;20292;-79
2022/07/01 03:13:09;;;;;;;384.45;260.90;;;;;;;15.72;100.00;99479.09;5051599;28;20656;-80
2022/07/01 03:15:35;;;;;;;382.73;255.75;;;;;;;15.59;100.00;99464.75;5051345;28;20643;-79
2022/07/01 03:18:02;;;;;;;378.63;247.23;;;;;;;15.74;100.00;99458.09;5052350;28;20268;-78
2022/07/01 03:20:29;;;;;;;377.80;242.95;;;;;;;15.68;100.00;99455.00;5052052;28;20209;-78
2022/07/01 03:22:57;;;;;;;379.02;251.68;;;;;;;15.62;100.00;99456.34;5051868;28;20696;-79
2022/07/01 03:25:23;;;;;;;385.92;259.88;;;;;;;15.57;100.00;99453.16;5051743;28;20703;-80
2022/07/01 03:27:50;;;;;;;387.27;270.65;;;;;;;15.54;100.00;99461.53;5051459;28;20272;-80
2022/07/01 03:30:17;;;;;;;380.65;244.60;;;;;;;15.29;100.00;99459.94;5051806;28;20201;-81
2022/07/01 03:32:44;;;;;;;381.95;239.65;;;;;;;15.23;100.00;99464.84;5051791;28;20276;-80
2022/07/01 03:37:57;;;;;;;384.77;251.60;;;;;;;15.45;100.00;99463.16;5051448;28;20184;-79
2022/07/01 03:40:24;;;;;;;379.92;235.60;;;;;;;15.52;100.00;99464.38;5051226;28;20316;-79
2022/07/01 03:42:51;;;;;;;373.13;230.90;;;;;;;15.36;100.00;99480.16;5051514;28;20192;-78
2022/07/01 03:45:17;;;;;;;381.50;248.68;;;;;;;15.44;100.00;99493.97;5051868;28;20272;-79
2022/07/01 03:47:48;;;;;;;382.83;236.10;;;;;;;15.43;100.00;99492.25;5051855;28;20296;-79
2022/07/01 03:50:15;;;;;;;383.25;248.68;;;;;;;15.50;100.00;99498.91;5051606;28;20221;-80
2022/07/01 03:52:42;;;;;;;387.10;261.35;;;;;;;15.46;100.00;99500.13;5051646;28;20283;-80
2022/07/01 03:55:10;;;;;;;380.42;237.13;;;;;;;15.49;100.00;99489.06;5051648;28;20612;-79
2022/07/01 03:57:37;;;;;;;377.15;239.07;;;;;;;15.47;100.00;99488.31;5051506;28;20205;-79
2022/07/01 04:00:05;;;;;;;387.92;265.45;;;;;;;15.69;100.00;99492.84;5051117;28;20210;-80
2022/07/01 04:02:31;;;;;;;388.67;269.05;;;;;;;15.67;100.00;99499.38;5051426;28;20235;-80
2022/07/01 04:04:58;;;;;;;379.20;251.93;;;;;;;15.71;100.00;99495.47;5051181;28;20288;-80
2022/07/01 04:07:26;;;;;;;375.10;251.40;;;;;;;15.78;100.00;99478.59;5050977;28;20280;-80
2022/07/01 04:09:53;;;;;;;381.10;260.50;;;;;;;15.79;100.00;99488.44;5051326;28;20260;-79
2022/07/01 04:12:21;;;;;;;380.83;262.15;;;;;;;15.70;100.00;99493.72;5051063;28;20323;-80
2022/07/01 04:14:48;;;;;;;381.65;256.60;;;;;;;15.77;100.00;99497.72;5051446;28;20186;-80
2022/07/01 04:17:15;;;;;;;374.70;239.38;;;;;;;15.99;100.00;99505.81;5050877;28;20221;-80
2022/07/01 04:19:42;;;;;;;384.42;277.13;;;;;;;16.03;100.00;99517.28;5051735;28;20252;-79
2022/07/01 04:24:52;;;;;;;382.67;268.52;;;;;;;16.08;100.00;99515.06;5053856;28;20523;-79
2022/07/01 04:27:21;;;;;;;382.10;261.15;;;;;;;16.00;100.00;99512.09;5054697;28;20284;-79
2022/07/01 04:29:47;;;;;;;330.00;170.38;;;;;;;16.08;100.00;99504.22;5054936;28;20546;-79
2022/07/01 04:32:14;;;;;;;327.23;164.75;;;;;;;16.12;100.00;99512.94;5054505;28;20186;-80
2022/07/01 04:34:41;;;;;;;326.63;162.45;;;;;;;16.34;100.00;99521.03;5054847;28;20292;-80
2022/07/01 04:37:07;;;;;;;384.13;231.93;;;;;;;16.50;100.00;99531.50;5054454;28;20277;-80
2022/07/01 04:39:34;;;;;;;385.98;256.13;;;;;;;16.36;100.00;99527.22;5054543;28;20701;-80
2022/07/01 04:42:00;;;;;;;383.77;250.05;;;;;;;16.39;100.00;99524.25;5054239;28;20276;-80
2022/07/01 04:44:28;;;;;;;381.57;238.20;;;;;;;16.52;100.00;99518.63;5054404;28;20319;-79
2022/07/01 04:46:55;;;;;;;372.60;213.57;;;;;;;16.54;100.00;99499.50;5054403;28;20216;-79
2022/07/01 04:49:22;;;;;;;375.90;229.23;;;;;;;16.65;100.00;99496.72;5053981;28;20252;-79
2022/07/01 04:51:48;;;;;;;376.40;219.73;;;;;;;16.81;100.00;99497.16;5053881;28;20187;-79
2022/07/01 04:54:15;;;;;;;391.52;262.65;;;;;;;16.84;100.00;99507.78;5054292;28;20293;-79
2022/07/01 04:56:42;;;;;;;389.05;241.55;;;;;;;16.57;100.00;99516.38;5054098;28;20700;-79
2022/07/01 04:59:08;;;;;;;382.15;231.68;;;;;;;16.88;100.00;99517.41;5053839;28;20205;-79
2022/07/01 05:01:36;;;;;;;379.17;236.80;;;;;;;17.10;100.00;99534.59;5054013;28;20219;-79
2022/07/01 05:04:03;;;;;;;388.15;274.27;;;;;;;17.15;100.00;99540.50;5053647;28;20349;-79
2022/07/01 05:06:30;;;;;;;381.05;235.70;;;;;;;17.00;100.00;99559.00;5054007;28;20642;-79
2022/07/01 05:08:56;;;;;;;376.27;216.05;;;;;;;17.16;100.00;99549.53;5053428;28;20208;-80
2022/07/01 05:11:23;;;;;;;379.27;236.35;;;;;;;17.19;100.00;99546.56;5053561;28;20215;-80
2022/07/01 05:13:50;;;;;;;406.25;319.55;;;;;;;17.17;100.00;99535.81;5053379;28;20236;-81
2022/07/01 05:16:16;;;;;;;397.45;280.75;;;;;;;17.09;100.00;99531.03;5053685;28;20207;-79
2022/07/01 05:24:14;;;;;;;394.70;297.77;;;;;;;17.58;100.00;99547.66;5053690;28;20200;-80
2022/07/01 05:26:40;;;;;;;411.27;328.85;;;;;;;17.71;100.00;99542.00;5053902;28;20191;-79
2022/07/01 05:29:07;;;;;;;407.65;336.00;;;;;;;17.48;100.00;99535.84;5053713;28;20339;-80
2022/07/01 05:31:34;;;;;;;409.17;343.63;;;;;;;17.48;100.00;99538.59;5052826;28;20212;-80
2022/07/01 05:34:06;;;;;;;413.83;334.60;;;;;;;17.45;100.00;99563.31;5053481;28;20314;-80
2022/07/01 05:36:33;;;;;;;392.02;298.02;;;;;;;17.50;100.00;99571.94;5052270;28;20195;-80
2022/07/01 05:39:00;;;;;;;403.55;326.50;;;;;;;17.78;100.00;99572.25;5052825;28;20392;-79
2022/07/01 05:41:27;;;;;;;414.23;348.63;;;;;;;17.77;100.00;99560.47;5052868;28;20211;-80
2022/07/01 05:43:54;;;;;;;405.73;335.35;;;;;;;17.63;100.00;99553.53;5047155;28;20299;-78
2022/07/01 05:46:20;;;;;;;408.33;319.73;;;;;;;17.63;100.00;99541.78;5032076;28;20216;-79
2022/07/01 05:48:47;;;;;;;412.08;329.92;;;;;;;17.77;100.00;99565.06;5032809;28;20216;-80
2022/07/01 05:51:15;;;;;;;400.27;310.88;;;;;;;17.60;100.00;99555.69;5032308;28;20605;-79
2022/07/01 05:53:43;;;;;;;405.10;318.00;;;;;;;17.58;100.00;99546.78;5032245;28;20371;-79
2022/07/01 05:56:10;;;;;;;399.33;310.70;;;;;;;17.73;100.00;99542.72;5032447;28;20206;-79
2022/07/01 05:58:36;;;;;;;411.17;336.10;;;;;;;17.87;100.00;99546.97;5032441;28;20195;-79
2022/07/01 06:01:03;;;;;;;400.38;308.90;;;;;;;17.54;100.00;99548.91;5032520;28;20300;-79
2022/07/01 06:03:30;;;;;;;402.55;309.90;;;;;;;17.68;100.00;99542.25;5032079;28;20211;-79
2022/07/01 06:05:56;;;;;;;396.38;292.95;;;;;;;17.33;100.00;99550.81;5032086;28;20541;-80
2022/07/01 06:08:24;;;;;;;398.67;317.45;;;;;;;17.41;100.00;99551.84;5032701;28;20704;-79
2022/07/01 06:10:51;;;;;;;399.70;308.70;;;;;;;17.43;100.00;99555.28;5032429;28;20282;-79
2022/07/01 06:13:18;;;;;;;417.08;328.45;;;;;;;17.23;100.00;99546.16;5032390;28;20709;-80
2022/07/01 06:15:44;;;;;;;397.85;311.58;;;;;;;17.18;100.00;99540.22;5032366;28;20234;-80
2022/07/01 06:18:11;;;;;;;409.83;318.23;;;;;;;17.21;100.00;99541.84;5033571;28;20291;-80
2022/07/01 06:20:38;;;;;;;398.27;293.10;;;;;;;16.84;100.00;99540.41;5052308;28;20724;-80
2022/07/01 06:23:04;;;;;;;391.75;277.67;;;;;;;16.85;100.00;99557.59;5051799;28;20243;-80
2022/07/01 06:25:32;;;;;;;395.58;307.52;;;;;;;16.77;100.00;99554.63;5050539;28;20289;-80
2022/07/01 06:27:59;;;;;;;396.48;293.65;;;;;;;16.94;100.00;99558.69;5052288;28;20296;-81
2022/07/01 06:30:26;;;;;;;397.73;292.30;;;;;;;16.87;100.00;99550.19;5052277;28;20269;-79
2022/07/01 06:32:53;;;;;;;397.48;292.70;;;;;;;16.62;100.00;99562.22;5051805;28;20407;-81
2022/07/01 06:35:19;;;;;;;397.23;301.92;;;;;;;16.76;100.00;99566.50;5051902;28;20284;-79
2022/07/01 06:37:46;;;;;;;389.20;291.35;;;;;;;16.73;100.00;99566.75;5051982;28;20273;-80
2022/07/01 06:40:13;;;;;;;399.85;300.02;;;;;;;16.74;100.00;99560.34;5051603;28;20247;-80
2022/07/01 06:42:41;;;;;;;390.90;286.40;;;;;;;16.79;100.00;99569.84;5051793;28;20192;-80
2022/07/01 06:45:08;;;;;;;392.88;278.15;;;;;;;16.97;100.00;99563.84;5051766;28;20203;-80
2022/07/01 06:47:36;;;;;;;394.85;295.98;;;;;;;17.19;100.00;99558.28;5050511;28;20201;-80
2022/07/01 06:50:03;;;;;;;393.73;290.00;;;;;;;17.46;100.00;99565.91;5051400;28;20228;-79
2022/07/01 06:52:29;;;;;;;398.13;294.13;;;;;;;17.54;100.00;99569.81;5051763;28;20209;-79
2022/07/01 06:54:56;;;;;;;394.45;293.60;;;;;;;17.67;100.00;99576.78;5051653;28;20286;-81
2022/07/01 06:57:22;;;;;;;404.02;321.02;;;;;;;17.87;100.00;99572.31;5050762;28;20234;-79
2022/07/01 06:59:50;;;;;;;399.77;311.27;;;;;;;17.80;100.00;99575.72;5051385;28;20281;-79
2022/07/01 07:02:18;;;;;;;408.17;328.33;;;;;;;17.55;100.00;99577.88;5050801;28;20682;-78
2022/07/01 07:04:44;;;;;;;390.73;282.45;;;;;;;17.56;100.00;99585.03;5050743;28;20294;-78
2022/07/01 07:07:11;;;;;;;396.17;293.02;;;;;;;17.59;100.00;99581.16;5051299;28;20297;-79
2022/07/01 07:09:38;;;;;;;403.95;324.98;;;;;;;17.64;100.00;99582.50;5051440;28;20277;-77
2022/07/01 07:12:05;;;;;;;406.85;322.50;;;;;;;18.12;100.00;99590.06;5052682;28;20237;-78
2022/07/01 07:14:32;;;;;;;401.83;312.95;;;;;;;17.77;100.00;99587.72;5051420;28;20277;-78
2022/07/01 07:17:00;;;;;;;402.15;321.65;;;;;;;17.69;100.00;99580.22;5051611;28;20658;-78
2022/07/01 07:19:26;;;;;;;407.73;329.27;;;;;;;17.72;100.00;99582.66;5052743;28;20274;-79
2022/07/01 07:21:53;;;;;;;395.50;301.80;;;;;;;17.61;100.00;99563.69;5051227;28;20229;-79
2022/07/01 07:24:19;;;;;;;397.08;310.30;;;;;;;17.55;100.00;99575.16;5050558;28;20752;-78
2022/07/01 07:26:47;;;;;;;401.83;327.52;;;;;;;17.85;100.00;99568.03;5050625;28;20229;-78
2022/07/01 07:29:14;;;;;;;395.23;296.60;;;;;;;17.92;98.21;99572.78;5051029;28;20669;-78
2022/07/01 07:31:40;;;;;;;400.13;321.83;;;;;;;18.07;97.36;99575.16;5050928;28;20628;-78
2022/07/01 07:34:08;;;;;;;403.98;320.88;;;;;;;18.57;92.17;99585.19;5050464;28;20235;-79
2022/07/01 07:36:36;;;;;;;405.90;328.58;;;;;;;18.40;92.93;99583.97;5050607;28;20291;-77
2022/07/01 07:39:02;;;;;;;402.50;331.17;;;;;;;18.17;92.49;99586.06;5051523;28;20184;-77
2022/07/01 07:41:29;;;;;;;407.67;331.30;;;;;;;18.48;91.54;99581.44;5051249;28;20662;-77
2022/07/01 07:43:55;;;;;;;400.88;331.33;;;;;;;18.64;88.39;99587.19;5050421;28;20290;-78
2022/07/01 07:46:22;;;;;;;406.25;349.50;;;;;;;18.47;88.49;99577.81;5050100;28;20185;-77
2022/07/01 07:48:49;;;;;;;395.15;311.73;;;;;;;18.28;89.93;99577.78;5050268;28;20204;-79
2022/07/01 07:51:18;;;;;;;401.83;328.05;;;;;;;18.22;90.08;99581.06;5050004;28;20191;-78
2022/07/01 07:53:45;;;;;;;398.80;316.77;;;;;;;18.18;89.71;99585.06;5050405;28;20207;-80
2022/07/01 07:56:12;;;;;;;401.55;328.92;;;;;;;18.92;84.70;99580.06;5054455;28;20196;-80
2022/07/01 07:58:41;;;;;;;404.05;328.52;;;;;;;19.40;81.16;99582.91;5054767;28;20287;-77
2022/07/01 08:01:08;;;;;;;407.98;348.52;;;;;;;18.85;83.04;99587.09;5054634;28;20328;-79
2022/07/01 08:03:35;;;;;;;403.02;344.33;;;;;;;18.61;84.77;99583.88;5057614;28;20291;-77
2022/07/01 08:06:02;;;;;;;404.88;341.05;;;;;;;19.19;81.48;99594.84;5055199;28;20276;-79
2022/07/01 08:08:30;;;;;;;409.77;362.98;;;;;;;19.69;79.04;99600.13;5054586;28;20280;-77
2022/07/01 08:10:56;;;;;;;412.73;358.92;;;;;;;19.56;78.60;99592.22;5052645;28;20213;-79
2022/07/01 08:13:24;;;;;;;413.58;350.17;;;;;;;18.51;86.29;99592.91;5054009;28;20327;-78
2022/07/01 08:15:51;;;;;;;413.85;355.42;;;;;;;18.52;88.54;99597.38;5054780;28;20295;-78
2022/07/01 08:18:17;;;;;;;406.50;342.00;;;;;;;18.85;84.34;99586.25;5056067;28;20227;-78
2022/07/01 08:20:44;;;;;;;408.52;354.42;;;;;;;19.01;83.29;99589.25;5056733;28;20306;-79
2022/07/01 08:23:11;;;;;;;416.63;346.05;;;;;;;19.16;83.34;99596.00;5055524;28;20515;-77
2022/07/01 08:25:39;;;;;;;413.40;360.52;;;;;;;19.31;80.00;99596.44;5055838;28;20596;-78
2022/07/01 08:28:06;;;;;;;411.23;356.05;;;;;;;19.75;73.79;99599.53;5055422;28;20219;-77
2022/07/01 08:30:32;;;;;;;413.70;367.25;;;;;;;19.77;73.00;99596.66;5055664;28;20275;-77
2022/07/01 08:32:59;;;;;;;419.23;372.85;;;;;;;19.79;71.80;99600.13;5056899;28;20194;-79
2022/07/01 08:35:26;;;;;;;420.15;374.25;;;;;;;19.90;71.28;99613.59;5056240;28;20255;-78
2022/07/01 08:37:53;;;;;;;440.60;394.30;;;;;;;20.39;67.74;99614.22;5058821;28;20280;-78
2022/07/01 08:40:19;;;;;;;447.52;400.67;;;;;;;20.39;67.86;99618.84;5058395;28;20272;-78
2022/07/01 08:42:47;;;;;;;439.05;392.42;;;;;;;19.71;67.26;99613.66;5054536;28;20197;-78
2022/07/01 08:45:14;;;;;;;439.75;393.42;;;;;;;19.54;69.22;99612.50;5057005;28;20280;-78
2022/07/01 08:47:51;;;;;;;423.85;377.45;;;;;;;19.54;70.19;99607.03;5054715;28;20290;-78
2022/07/01 08:50:19;;;;;;;424.08;378.15;;;;;;;19.49;69.39;99604.75;5055712;28;20196;-79
2022/07/01 08:52:45;;;;;;;437.73;391.25;;;;;;;19.96;67.17;99620.31;5054489;28;20232;-79
2022/07/01 08:55:12;;;;;;;430.25;384.13;;;;;;;20.11;65.59;99616.09;5052785;28;20189;-78
2022/07/01 08:57:39;;;;;;;427.08;381.33;;;;;;;20.52;64.72;99613.88;5053661;28;20284;-79
2022/07/01 09:00:08;;;;;;;450.67;403.58;;;;;;;20.11;65.61;99612.53;5053437;28;20190;-78
2022/07/01 09:02:53;;;;;;;435.58;389.23;;;;;;;19.34;69.87;99615.25;5053261;28;20260;-78
2022/07/01 09:05:20;;;;;;;422.55;376.67;;;;;;;19.30;69.65;99611.09;5054609;28;20239;-79
2022/07/01 09:07:48;;;;;;;421.73;375.23;;;;;;;19.00;69.41;99613.97;5053778;28;20605;-77
2022/07/01 09:10:18;;;;;;;414.38;364.13;;;;;;;19.21;69.15;99613.81;5053096;28;20201;-80
2022/07/01 09:12:45;;;;;;;411.85;366.20;;;;;;;19.73;67.00;99612.47;5054551;28;20229;-78
2022/07/01 09:15:36;;;;;;;419.65;374.05;;;;;;;19.95;65.22;99622.22;5053872;28;20289;-79
2022/07/01 09:18:06;;;;;;;406.52;360.95;;;;;;;20.51;61.60;99622.25;5053796;28;20216;-78
2022/07/01 09:20:35;;;;;;;426.05;380.48;;;;;;;21.13;60.35;99614.22;5054257;28;20189;-79
2022/07/01 09:23:04;;;;;;;429.45;383.70;;;;;;;21.54;58.13;99618.22;5054411;28;20199;-78
2022/07/01 09:25:33;;;;;;;463.67;416.88;;;;;;;22.14;55.58;99611.94;5052822;28;20185;-77
2022/07/01 09:28:05;;;;;;;456.02;409.30;;;;;;;22.04;53.93;99609.28;5053583;28;20196;-78
2022/07/01 09:30:33;;;;;;;482.40;435.38;;;;;;;21.88;55.28;99609.19;5052290;28;20200;-78
2022/07/01 09:33:12;;;;;;;478.40;431.65;;;;;;;21.58;54.65;99603.19;5052118;28;20193;-80
2022/07/01 09:35:39;;;;;;;483.77;436.48;;;;;;;20.58;59.17;99621.53;5052342;28;20197;-79
2022/07/01 09:38:07;;;;;;;478.98;431.55;;;;;;;20.36;61.93;99616.44;5052987;28;20277;-78
2022/07/01 09:40:53;;;;;;;463.55;417.00;;;;;;;20.17;64.44;99626.44;5053295;28;20201;-77
2022/07/01 09:43:21;;;;;;;472.25;424.85;;;;;;;20.27;64.17;99625.53;5052869;28;20284;-78
2022/07/01 09:46:00;;;;;;;529.10;479.23;;;;;;;20.48;63.09;99628.88;5053016;28;20278;-78
2022/07/01 09:48:42;;;;;;;477.95;429.85;;;;;;;20.80;60.60;99617.50;5053734;28;20240;-77
2022/07/01 09:51:10;;;;;;;486.00;438.60;;;;;;;20.42;62.01;99633.09;5055288;28;20178;-79
2022/07/01 09:53:37;;;;;;;471.08;423.70;;;;;;;20.79;61.56;99625.88;5052757;28;20672;-78
2022/07/01 09:56:04;;;;;;;470.17;423.42;;;;;;;20.35;63.43;99633.84;5056366;28;20248;-78
2022/07/01 09:58:32;;;;;;;485.73;438.23;;;;;;;20.57;61.99;99638.09;5051663;28;20319;-77
2022/07/01 10:01:01;;;;;;;472.67;425.83;;;;;;;20.27;61.19;99633.75;5052989;28;20205;-78
2022/07/01 10:03:27;;;;;;;449.65;403.38;;;;;;;20.39;61.33;99629.78;5051684;28;20294;-79
2022/07/01 10:05:57;;;;;;;454.70;408.00;;;;;;;20.79;58.79;99632.19;5052398;28;20182;-79
2022/07/01 10:08:43;;;;;;;467.45;420.02;;;;;;;20.58;55.27;99631.63;5051260;28;20504;-78
2022/07/01 10:11:40;;;;;;;478.60;431.27;;;;;;;21.18;52.92;99625.56;5054505;28;20314;-78
2022/07/01 10:14:09;;;;;;;476.67;429.13;;;;;;;21.15;55.45;99634.09;5037044;28;20332;-79
2022/07/01 10:16:38;;;;;;;484.50;436.92;;;;;;;21.42;51.61;99630.44;5051764;28;20194;-79
2022/07/01 10:19:25;;;;;;;486.98;439.50;;;;;;;21.84;52.59;99627.88;5055329;28;20193;-80
2022/07/01 10:21:53;;;;;;;487.27;439.92;;;;;;;22.35;50.51;99630.75;5051601;28;20221;-78
2022/07/01 10:24:21;;;;;;;484.27;436.83;;;;;;;22.83;45.83;99629.19;5052250;28;20207;-79
2022/07/01 10:26:48;;;;;;;497.48;449.95;;;;;;;22.61;46.96;99619.72;5051083;28;20186;-80
2022/07/01 10:29:28;;;;;;;518.97;470.60;;;;;;;23.07;47.09;99622.09;5056489;28;20194;-77
2022/07/01 10:32:01;;;;;;;512.15;464.42;;;;;;;23.10;46.55;99629.97;5054438;28;20193;-79
2022/07/01 10:34:35;;;;;;;525.55;477.15;;;;;;;22.64;48.59;99622.13;5055534;28;20185;-79
2022/07/01 10:37:03;;;;;;;545.83;496.85;;;;;;;22.54;49.11;99626.88;5054628;28;20185;-77
2022/07/01 10:39:30;;;;;;;537.17;487.90;;;;;;;21.61;53.45;99621.16;5056959;28;20233;-74
2022/07/01 10:42:08;;;;;;;545.63;496.60;;;;;;;21.30;55.02;99612.50;5049833;28;20315;-74
2022/07/01 10:44:36;;;;;;;550.10;500.63;;;;;;;21.48;55.24;99620.72;5049548;28;20216;-75
2022/07/01 10:47:06;;;;;;;513.60;465.48;;;;;;;21.25;55.32;99626.66;5049916;28;20644;-74
2022/07/01 10:49:59;;;;;;;506.98;458.80;;;;;;;21.68;52.43;99613.16;5049916;28;20296;-74
2022/07/01 10:52:27;;;;;;;511.90;464.35;;;;;;;22.13;49.60;99615.69;5049967;28;20235;-74
2022/07/01 10:54:55;;;;;;;513.15;465.35;;;;;;;22.53;48.11;99611.44;5050853;28;20247;-73
2022/07/01 10:57:26;;;;;;;575.60;525.95;;;;;;;22.92;44.68;99615.50;5048930;28;20247;-73
2022/07/01 10:59:55;;;;;;;551.13;502.05;;;;;;;22.16;47.27;99615.38;5050743;28;20258;-74
2022/07/01 11:02:24;;;;;;;552.08;503.13;;;;;;;21.61;49.62;99632.13;5049298;28;20239;-73
2022/07/01 11:04:54;;;;;;;551.65;502.67;;;;;;;21.59;51.05;99625.94;5050607;28;20198;-73
2022/07/01 11:07:21;;;;;;;545.70;496.65;;;;;;;21.72;48.95;99628.28;5049068;28;20197;-73
2022/07/01 11:09:48;;;;;;;561.78;512.38;;;;;;;21.67;47.72;99620.53;5050195;28;20281;-74
2022/07/01 11:12:16;;;;;;;530.15;481.35;;;;;;;22.00;47.25;99632.59;5050554;28;20714;-74